Glen Aubrey, New York
Current Conditions -  °F | °C
As of 12:53 PM on Friday 24 Oct 2014 (Local Time) from KBGM Reporting Station
Clear Clear  
Wind Chill: 13°   Ceiling: Unl
Heat Index: 13°   Visibility: 10mi
Dew Point:   Wind: 15mph
Humidity: 57%   Direction: 330°NNW
Pressure: 29.89"   Gusts: 24mph
Location:  42.26°N, 76.01°W
Report Text: KBGM 241653Z 33013G21KT 10SM CLR 13/05 A2989 RMK AO2 SLP124 T01330050
Loading
Personal Weather Stations






























Interactive Weather Map
Tropical Storm Tracking
New forecast layout! Learn more

10-Day Weather Forecast

Advertisements
Track Severe Weather on mobile